Time;durP1;ratioP1;P1;durP2;ratioP2;P2;SDS_P1;SDS_P2;PMS_P1;PMS_P2;Temp;Humidity;BMP_temperature;BMP_pressure;BME280_temperature;BME280_humidity;BME280_pressure;Samples;Min_cycle;Max_cycle;Signal;HPM_P1;HPM_P2
2021/11/17 02:26:57;;;;;;;99.55;52.67;;;;;;;-4.63;74.31;102417.23;1830761;77;20918;-73
2021/11/17 02:29:34;;;;;;;125.50;57.67;;;;;;;-4.63;74.19;102418.52;1829807;77;21465;-73
2021/11/17 02:32:47;;;;;;;114.62;55.35;;;;;;;-4.64;73.94;102416.80;1830134;77;20840;-73
2021/11/17 02:35:34;;;;;;;114.62;55.95;;;;;;;-4.66;73.68;102415.02;1830026;77;20911;-73
2021/11/17 02:38:25;;;;;;;99.17;53.68;;;;;;;-4.69;73.48;102404.66;1809286;77;22166;-74
2021/11/17 02:41:12;;;;;;;110.68;57.67;;;;;;;-4.72;73.30;102409.69;1830281;78;20951;-73
2021/11/17 02:44:20;;;;;;;90.35;51.37;;;;;;;-4.79;73.12;102410.77;1829928;77;20864;-74
2021/11/17 02:47:07;;;;;;;93.52;49.55;;;;;;;-4.80;73.02;102412.02;1829491;76;20982;-72
2021/11/17 02:49:54;;;;;;;100.72;52.20;;;;;;;-4.84;72.64;102408.48;1826854;78;21441;-73
2021/11/17 02:52:35;;;;;;;104.92;52.75;;;;;;;-4.87;72.49;102410.95;1827074;77;21132;-72
2021/11/17 02:55:29;;;;;;;103.83;51.10;;;;;;;-4.87;72.32;102407.50;1826177;78;20932;-74
2021/11/17 02:58:24;;;;;;;104.55;54.48;;;;;;;-4.90;72.23;102403.58;1826721;77;20963;-73
2021/11/17 03:02:21;;;;;;;119.28;61.48;;;;;;;-4.89;72.14;102410.42;1797862;79;22579;-74
2021/11/17 03:05:08;;;;;;;119.35;60.92;;;;;;;-4.95;72.07;102404.71;1757913;80;21022;-74
2021/11/17 03:08:00;;;;;;;118.45;60.90;;;;;;;-4.94;72.01;102406.85;1758428;80;21699;-74
2021/11/17 03:10:59;;;;;;;122.35;60.17;;;;;;;-4.94;71.84;102403.02;1789604;78;21500;-73
2021/11/17 03:14:00;;;;;;;105.25;55.48;;;;;;;-4.92;71.68;102400.96;1792747;80;20888;-74
2021/11/17 03:16:47;;;;;;;116.45;59.00;;;;;;;-4.91;71.32;102403.10;1756747;80;21002;-74
2021/11/17 03:19:39;;;;;;;117.25;60.90;;;;;;;-4.96;71.13;102405.52;1731115;83;20944;-73
2021/11/17 03:22:11;;;;;;;116.60;56.75;;;;;;;-4.94;71.00;102405.57;1739408;82;21213;-73
2021/11/17 03:24:49;;;;;;;120.85;57.27;;;;;;;-4.91;70.68;102408.22;1730619;81;20889;-74
2021/11/17 03:27:28;;;;;;;110.80;53.02;;;;;;;-4.95;70.33;102407.69;1738889;81;20948;-74
2021/11/17 03:30:24;;;;;;;99.10;50.08;;;;;;;-4.97;70.18;102399.09;1738346;81;21532;-73
2021/11/17 03:32:59;;;;;;;96.85;51.95;;;;;;;-4.98;70.11;102399.89;1739530;82;20853;-73
2021/11/17 03:35:44;;;;;;;110.22;52.30;;;;;;;-4.96;70.11;102400.39;1739546;81;21800;-74
2021/11/17 03:38:28;;;;;;;97.95;49.15;;;;;;;-4.95;69.97;102398.73;1738571;82;21405;-74
2021/11/17 03:41:06;;;;;;;104.07;49.95;;;;;;;-4.95;70.02;102390.64;1738854;82;21362;-73
2021/11/17 03:43:57;;;;;;;100.30;51.50;;;;;;;-4.95;69.99;102389.36;1738747;82;20845;-74
2021/11/17 03:46:56;;;;;;;105.72;49.15;;;;;;;-4.93;69.82;102395.81;1738919;81;20916;-74
2021/11/17 03:49:46;;;;;;;97.37;49.45;;;;;;;-4.94;69.58;102391.50;1738683;82;21748;-74
2021/11/17 03:52:36;;;;;;;122.47;55.95;;;;;;;-4.96;69.34;102390.58;1738667;82;20979;-75
2021/11/17 03:55:36;;;;;;;130.82;53.70;;;;;;;-5.02;69.30;102387.43;1737838;82;20927;-73
2021/11/17 03:58:27;;;;;;;131.63;53.42;;;;;;;-5.07;69.35;102383.83;1716076;81;21548;-74
2021/11/17 04:01:23;;;;;;;103.78;49.30;;;;;;;-5.16;69.49;102381.84;1732192;82;20925;-73
2021/11/17 04:04:08;;;;;;;82.10;43.20;;;;;;;-5.23;69.68;102380.77;1725461;83;21205;-73
2021/11/17 04:06:54;;;;;;;94.55;46.30;;;;;;;-5.26;69.64;102381.09;1725523;83;21525;-73
2021/11/17 04:09:50;;;;;;;97.65;45.15;;;;;;;-5.30;69.43;102380.11;1725757;83;20846;-74
2021/11/17 04:12:28;;;;;;;96.05;45.95;;;;;;;-5.34;69.37;102382.52;1697071;83;20933;-72
2021/11/17 04:15:06;;;;;;;101.40;50.67;;;;;;;-5.35;69.31;102382.06;1698743;83;20972;-74
2021/11/17 04:18:02;;;;;;;125.40;54.30;;;;;;;-5.34;69.23;102378.67;1698783;84;21162;-73
2021/11/17 04:20:50;;;;;;;126.62;54.30;;;;;;;-5.34;69.04;102376.98;1698547;84;20984;-74
2021/11/17 04:23:34;;;;;;;116.40;53.50;;;;;;;-5.34;68.96;102379.95;1695805;84;20960;-73
2021/11/17 04:26:26;;;;;;;149.85;66.35;;;;;;;-5.34;68.92;102382.52;1697720;84;20961;-73
2021/11/17 04:29:13;;;;;;;141.92;56.65;;;;;;;-5.35;68.89;102382.92;1698940;84;21043;-74
2021/11/17 04:32:03;;;;;;;145.05;63.87;;;;;;;-5.38;68.90;102379.00;1698730;84;21162;-74
2021/11/17 04:34:44;;;;;;;124.30;55.12;;;;;;;-5.41;69.00;102379.73;1698874;84;20905;-75
2021/11/17 04:37:22;;;;;;;117.70;55.15;;;;;;;-5.44;69.03;102375.81;1697989;83;20941;-73
2021/11/17 04:40:28;;;;;;;112.85;54.35;;;;;;;-5.46;69.05;102379.14;1698631;84;21478;-73
2021/11/17 04:43:24;;;;;;;121.95;55.90;;;;;;;-5.48;68.98;102388.44;1698823;84;21020;-75
2021/11/17 04:46:09;;;;;;;122.05;59.67;;;;;;;-5.55;68.96;102384.80;1698920;83;21423;-74
2021/11/17 04:48:59;;;;;;;129.90;62.43;;;;;;;-5.59;69.08;102382.95;1698778;83;21004;-74
2021/11/17 04:51:46;;;;;;;116.17;59.90;;;;;;;-5.60;69.34;102384.16;1715620;80;20849;-74
2021/11/17 04:54:25;;;;;;;123.13;61.28;;;;;;;-5.58;69.50;102385.98;1780831;80;20869;-74
2021/11/17 04:57:18;;;;;;;117.37;60.95;;;;;;;-5.56;69.39;102375.37;1780018;80;20872;-73
2021/11/17 05:00:05;;;;;;;123.72;58.52;;;;;;;-5.55;68.96;102377.55;1781114;80;21113;-73
2021/11/17 05:03:11;;;;;;;115.65;58.98;;;;;;;-5.56;68.77;102374.10;1786503;79;20958;-74
2021/11/17 05:05:58;;;;;;;166.57;76.67;;;;;;;-5.56;68.75;102378.35;1749817;82;21468;-74
2021/11/17 05:08:36;;;;;;;335.15;140.60;;;;;;;-5.59;68.77;102372.73;1747575;80;21033;-75
2021/11/17 05:11:14;;;;;;;305.65;145.32;;;;;;;-5.60;69.07;102371.39;1722814;82;20838;-75
2021/11/17 05:14:02;;;;;;;195.05;99.20;;;;;;;-5.59;68.99;102371.45;1730613;82;21306;-75
2021/11/17 05:16:43;;;;;;;142.37;72.22;;;;;;;-5.58;68.93;102374.48;1731160;82;20940;-76
2021/11/17 05:19:43;;;;;;;130.40;63.65;;;;;;;-5.55;68.85;102370.75;1730962;82;21401;-76
2021/11/17 05:22:42;;;;;;;129.70;62.90;;;;;;;-5.52;68.75;102376.37;1704499;82;20940;-76
2021/11/17 05:25:41;;;;;;;125.58;58.55;;;;;;;-5.50;68.60;102379.84;1730941;82;20991;-75
2021/11/17 05:28:47;;;;;;;134.85;66.72;;;;;;;-5.49;68.57;102381.57;1730869;82;22250;-76
2021/11/17 05:31:23;;;;;;;136.22;66.00;;;;;;;-5.52;68.52;102380.20;1696327;82;20956;-77
2021/11/17 05:34:03;;;;;;;143.15;71.82;;;;;;;-5.55;68.50;102377.13;1731564;83;20897;-74
2021/11/17 05:36:50;;;;;;;153.65;73.15;;;;;;;-5.54;68.69;102376.30;1731257;83;21409;-74
2021/11/17 05:39:47;;;;;;;143.82;68.00;;;;;;;-5.49;68.90;102374.80;1731637;83;21102;-75
2021/11/17 05:42:45;;;;;;;160.93;82.10;;;;;;;-5.42;69.03;102374.19;1731230;83;21574;-74
2021/11/17 05:45:53;;;;;;;135.07;68.75;;;;;;;-5.35;69.08;102380.38;1731141;82;20928;-74
2021/11/17 05:48:41;;;;;;;144.87;72.32;;;;;;;-5.28;69.13;102381.45;1649302;87;20929;-75
2021/11/17 05:51:29;;;;;;;142.98;70.70;;;;;;;-5.18;69.21;102380.91;1649003;87;20972;-74
2021/11/17 05:54:07;;;;;;;146.18;75.62;;;;;;;-5.08;69.23;102375.30;1649246;87;20976;-75
2021/11/17 05:57:01;;;;;;;148.40;73.62;;;;;;;-5.01;69.19;102380.20;1648699;87;21816;-75
2021/11/17 05:59:45;;;;;;;181.37;87.45;;;;;;;-4.95;69.10;102376.57;1649268;87;21450;-77
2021/11/17 06:02:41;;;;;;;200.60;95.65;;;;;;;-4.87;69.07;102377.70;1648246;87;20941;-75
2021/11/17 06:05:07;;;;;;;223.62;103.72;;;;;;;-4.78;68.96;102380.92;1596982;89;21001;-74
2021/11/17 06:07:33;;;;;;;283.70;129.07;;;;;;;-4.73;68.85;102392.20;1597235;89;21455;-74
2021/11/17 06:10:20;;;;;;;257.35;121.75;;;;;;;-4.71;68.75;102392.22;1597052;89;21906;-74
2021/11/17 06:12:47;;;;;;;173.05;84.97;;;;;;;-4.70;68.92;102388.86;1597255;89;20957;-76
2021/11/17 06:15:15;;;;;;;181.22;83.35;;;;;;;-4.67;69.06;102387.28;1596988;89;20918;-75
2021/11/17 06:17:45;;;;;;;156.57;78.42;;;;;;;-4.62;69.28;102386.14;1597090;89;20970;-75
2021/11/17 06:20:15;;;;;;;153.40;79.40;;;;;;;-4.54;69.45;102386.36;1596939;89;20942;-75
2021/11/17 06:22:45;;;;;;;168.55;85.92;;;;;;;-4.49;69.59;102379.67;1615014;88;21195;-75
2021/11/17 06:25:13;;;;;;;170.75;83.58;;;;;;;-4.42;69.78;102375.23;1665287;85;20952;-81
2021/11/17 06:27:43;;;;;;;183.05;96.35;;;;;;;-4.33;69.96;102382.31;1665210;85;20983;-78
2021/11/17 06:30:13;;;;;;;181.12;90.20;;;;;;;-4.24;70.14;102377.04;1665224;85;20908;-75
2021/11/17 06:32:40;;;;;;;181.80;102.62;;;;;;;-4.16;70.29;102370.84;1665382;84;20915;-76
2021/11/17 06:35:08;;;;;;;149.12;79.60;;;;;;;-4.06;70.39;102372.86;1665422;84;21213;-79
2021/11/17 06:37:35;;;;;;;154.57;80.83;;;;;;;-3.99;70.53;102365.80;1665389;84;21561;-80
2021/11/17 06:40:05;;;;;;;152.47;82.60;;;;;;;-3.90;70.70;102369.45;1665419;85;20880;-77
2021/11/17 06:42:39;;;;;;;153.90;79.37;;;;;;;-3.85;70.98;102373.86;1748640;80;20837;-78
2021/11/17 06:45:09;;;;;;;166.47;86.92;;;;;;;-3.80;71.23;102366.30;1786686;80;20963;-78
2021/11/17 06:47:36;;;;;;;160.07;83.65;;;;;;;-3.77;71.51;102357.42;1786696;80;21124;-79
2021/11/17 06:50:04;;;;;;;155.22;83.35;;;;;;;-3.70;71.86;102359.32;1786835;79;20870;-76
2021/11/17 06:52:31;;;;;;;161.18;80.65;;;;;;;-3.59;72.01;102363.03;1786527;79;20876;-78
2021/11/17 06:54:58;;;;;;;142.75;77.97;;;;;;;-3.48;72.16;102359.89;1786922;79;20946;-77
2021/11/17 06:57:25;;;;;;;150.03;83.07;;;;;;;-3.37;72.27;102361.90;1786679;79;20986;-78
2021/11/17 06:59:58;;;;;;;153.68;80.00;;;;;;;-3.26;72.39;102357.05;1786738;80;21067;-79
2021/11/17 07:02:24;;;;;;;141.50;78.17;;;;;;;-3.16;72.49;102348.76;1761313;80;20867;-78
2021/11/17 07:04:51;;;;;;;134.47;76.45;;;;;;;-3.07;72.67;102345.94;1789625;80;21480;-79
2021/11/17 07:07:20;;;;;;;136.20;78.55;;;;;;;-2.98;72.80;102350.00;1789793;80;21467;-76
2021/11/17 07:09:47;;;;;;;141.92;73.83;;;;;;;-2.89;72.89;102351.53;1789974;79;20847;-79
2021/11/17 07:12:16;;;;;;;151.47;78.20;;;;;;;-2.81;73.01;102351.27;1789686;78;21146;-77
2021/11/17 07:14:44;;;;;;;140.22;79.00;;;;;;;-2.71;73.11;102340.81;1752298;80;20935;-77
2021/11/17 07:17:12;;;;;;;147.65;82.30;;;;;;;-2.58;73.08;102343.21;1733508;82;20953;-77
2021/11/17 07:19:39;;;;;;;142.03;79.32;;;;;;;-2.46;73.09;102340.92;1733546;82;20916;-80
2021/11/17 07:22:11;;;;;;;141.62;81.78;;;;;;;-2.33;73.01;102336.50;1752191;82;21462;-77
2021/11/17 07:24:36;;;;;;;148.78;81.67;;;;;;;-2.22;72.90;102330.70;1727119;82;21029;-80
2021/11/17 07:27:04;;;;;;;139.88;81.37;;;;;;;-2.10;72.81;102330.53;1752165;82;21354;-79
2021/11/17 07:29:32;;;;;;;148.10;80.83;;;;;;;-2.00;72.78;102325.17;1752286;82;20933;-79
2021/11/17 07:31:59;;;;;;;133.03;80.32;;;;;;;-1.88;72.70;102324.53;1752609;82;20921;-79
2021/11/17 07:34:26;;;;;;;150.87;84.28;;;;;;;-1.79;72.63;102324.70;1752449;82;20944;-78
2021/11/17 07:36:55;;;;;;;142.90;80.95;;;;;;;-1.69;72.60;102329.58;1752222;82;21167;-79
2021/11/17 07:39:22;;;;;;;143.65;78.57;;;;;;;-1.57;72.58;102323.81;1752479;82;20909;-79
2021/11/17 07:41:51;;;;;;;143.75;81.00;;;;;;;-1.50;72.67;102323.93;1752422;82;21087;-77
2021/11/17 07:44:18;;;;;;;138.03;78.35;;;;;;;-1.39;72.83;102325.83;1752246;82;20916;-74
2021/11/17 07:46:46;;;;;;;135.72;79.12;;;;;;;-1.30;73.00;102328.55;1752510;82;20991;-77
2021/11/17 07:49:14;;;;;;;138.07;77.78;;;;;;;-1.20;73.09;102328.27;1752387;82;21558;-78
2021/11/17 07:51:41;;;;;;;132.00;73.92;;;;;;;-1.11;73.18;102324.55;1752797;82;20929;-79
2021/11/17 07:54:09;;;;;;;130.60;71.15;;;;;;;-1.02;73.34;102325.13;1752593;82;20986;-81
2021/11/17 07:56:37;;;;;;;127.35;68.75;;;;;;;-0.92;73.40;102325.29;1752245;82;20971;-77
2021/11/17 07:59:06;;;;;;;117.25;63.30;;;;;;;-0.86;73.39;102323.24;1727167;82;21085;-77
2021/11/17 08:01:34;;;;;;;93.78;50.00;;;;;;;-0.77;73.37;102327.23;1746928;82;21175;-77
2021/11/17 08:04:01;;;;;;;108.55;51.77;;;;;;;-0.70;73.17;102319.17;1725591;83;21287;-76
2021/11/17 08:06:28;;;;;;;97.55;49.50;;;;;;;-0.62;73.06;102318.87;1780791;80;20928;-75
2021/11/17 08:08:55;;;;;;;94.52;41.73;;;;;;;-0.54;72.89;102313.80;1780950;79;21009;-76
2021/11/17 08:11:23;;;;;;;75.67;32.38;;;;;;;-0.49;72.61;102316.90;1781560;79;20911;-75
2021/11/17 08:13:51;;;;;;;66.40;34.38;;;;;;;-0.43;72.37;102322.11;1780959;80;21213;-78
2021/11/17 08:16:20;;;;;;;65.50;30.40;;;;;;;-0.39;72.23;102322.17;1780825;80;20923;-77
2021/11/17 08:18:47;;;;;;;65.78;31.02;;;;;;;-0.32;72.06;102322.25;1743882;82;21480;-78
2021/11/17 08:21:15;;;;;;;60.70;29.35;;;;;;;-0.27;71.91;102327.06;1743982;82;20945;-76
2021/11/17 08:23:41;;;;;;;71.87;31.27;;;;;;;-0.22;71.81;102321.53;1717814;82;20936;-77
2021/11/17 08:26:09;;;;;;;50.85;24.40;;;;;;;-0.17;71.74;102315.13;1780812;80;21153;-75
2021/11/17 08:28:35;;;;;;;59.65;28.95;;;;;;;-0.11;71.77;102320.77;1781124;79;20970;-80
2021/11/17 08:31:03;;;;;;;56.53;25.32;;;;;;;-0.06;71.54;102313.55;1780733;80;20911;-77
2021/11/17 08:33:30;;;;;;;38.85;21.23;;;;;;;0.01;71.38;102312.33;1743797;81;20909;-78
2021/11/17 08:35:58;;;;;;;43.35;20.88;;;;;;;0.09;71.37;102308.09;1743919;82;21385;-77
2021/11/17 08:38:25;;;;;;;33.83;19.12;;;;;;;0.14;71.13;102300.86;1717705;82;21533;-77
2021/11/17 08:40:56;;;;;;;35.40;20.65;;;;;;;0.21;70.88;102304.37;1780671;79;20915;-75
2021/11/17 08:43:23;;;;;;;42.88;21.17;;;;;;;0.26;70.86;102292.80;1744095;82;20924;-75
2021/11/17 08:45:52;;;;;;;37.15;20.20;;;;;;;0.33;70.74;102297.16;1743584;82;20944;-76
2021/11/17 08:48:21;;;;;;;45.28;23.00;;;;;;;0.39;70.42;102292.07;1717471;83;20921;-73
2021/11/17 08:50:48;;;;;;;35.95;20.70;;;;;;;0.44;70.32;102288.23;1780885;79;21137;-76
2021/11/17 08:53:16;;;;;;;44.63;21.77;;;;;;;0.48;70.19;102284.41;1744110;82;20954;-76
2021/11/17 08:55:44;;;;;;;55.55;20.27;;;;;;;0.52;70.03;102279.72;1743961;82;21066;-75
2021/11/17 08:58:13;;;;;;;53.35;23.98;;;;;;;0.56;69.76;102281.91;1717779;83;20874;-75
2021/11/17 09:00:43;;;;;;;58.05;23.15;;;;;;;0.59;69.36;102277.61;1780866;80;21433;-74
2021/11/17 09:03:10;;;;;;;71.15;24.37;;;;;;;0.65;69.05;102274.23;1750001;81;21125;-75
2021/11/17 09:05:42;;;;;;;66.37;25.52;;;;;;;0.69;68.80;102265.66;1733578;81;20980;-73
2021/11/17 09:08:10;;;;;;;62.03;22.52;;;;;;;0.73;68.61;102266.53;1733719;82;21494;-75
2021/11/17 09:10:40;;;;;;;59.80;27.60;;;;;;;0.77;68.42;102261.39;1752149;82;20967;-73
2021/11/17 09:13:07;;;;;;;53.40;24.60;;;;;;;0.80;68.47;102256.27;1752626;82;20988;-75
2021/11/17 09:15:37;;;;;;;45.15;22.58;;;;;;;0.86;68.47;102254.58;1752290;82;21143;-75
2021/11/17 09:18:06;;;;;;;37.58;20.97;;;;;;;0.91;68.37;102250.30;1752478;82;20908;-75
2021/11/17 09:20:33;;;;;;;43.42;20.85;;;;;;;0.95;68.17;102252.05;1752298;82;20927;-75
2021/11/17 09:23:00;;;;;;;39.30;19.25;;;;;;;0.99;67.76;102248.20;1752137;82;20909;-75
2021/11/17 09:25:27;;;;;;;33.30;18.37;;;;;;;1.03;67.62;102240.91;1752403;82;20944;-76
2021/11/17 09:27:55;;;;;;;33.15;19.40;;;;;;;1.08;67.51;102246.09;1752206;82;22024;-75
2021/11/17 09:30:26;;;;;;;43.05;19.87;;;;;;;1.15;67.10;102241.39;1752182;82;20968;-73
2021/11/17 09:32:56;;;;;;;45.15;21.42;;;;;;;1.21;66.78;102245.74;1752136;82;20928;-73
2021/11/17 09:35:22;;;;;;;39.98;22.42;;;;;;;1.28;66.27;102238.45;1752286;82;21370;-75
2021/11/17 09:37:51;;;;;;;35.55;21.55;;;;;;;1.29;66.05;102244.07;1752035;82;20861;-77
2021/11/17 09:40:26;;;;;;;32.60;17.65;;;;;;;1.33;65.93;102243.64;1752347;82;21529;-75
2021/11/17 09:42:54;;;;;;;30.20;16.35;;;;;;;1.35;65.74;102237.61;1752167;82;20864;-74
2021/11/17 09:45:21;;;;;;;28.65;16.02;;;;;;;1.37;65.37;102236.34;1752148;82;20917;-76
2021/11/17 09:47:48;;;;;;;30.68;16.75;;;;;;;1.38;65.50;102236.35;1752206;82;20936;-74
2021/11/17 09:50:30;;;;;;;30.48;15.80;;;;;;;1.43;65.35;102224.73;1752204;82;20980;-75
2021/11/17 09:53:02;;;;;;;26.73;15.70;;;;;;;1.47;65.09;102232.95;1752200;82;22198;-73
2021/11/17 09:55:35;;;;;;;36.65;16.87;;;;;;;1.55;64.68;102232.95;1751939;82;20936;-74
2021/11/17 09:58:10;;;;;;;30.15;16.77;;;;;;;1.58;64.60;102232.55;1751010;82;21030;-76
2021/11/17 10:00:55;;;;;;;23.92;14.50;;;;;;;1.64;64.24;102230.39;1752136;82;20995;-75
2021/11/17 10:03:36;;;;;;;27.35;15.25;;;;;;;1.69;63.94;102227.82;1752150;82;21043;-74
2021/11/17 10:09:32;;;;;;;27.15;15.63;;;;;;;1.80;63.13;102223.53;1752180;82;20983;-75
2021/11/17 10:14:37;;;;;;;24.05;15.25;;;;;;;1.91;62.41;102221.83;1751668;82;20948;-75
2021/11/17 10:17:03;;;;;;;29.85;15.72;;;;;;;1.91;62.04;102214.51;1752186;82;20853;-77
2021/11/17 10:19:33;;;;;;;28.23;15.85;;;;;;;1.92;62.20;102211.94;1726701;82;21178;-75
2021/11/17 10:22:13;;;;;;;28.55;14.73;;;;;;;2.01;62.03;102213.67;1752603;82;20908;-75
2021/11/17 10:24:47;;;;;;;25.25;15.53;;;;;;;2.11;61.65;102211.51;1752157;82;20877;-75
2021/11/17 10:27:21;;;;;;;28.10;16.55;;;;;;;2.27;61.66;102204.64;1752600;82;20908;-76
2021/11/17 10:30:11;;;;;;;29.87;17.37;;;;;;;2.61;61.47;102208.50;1752628;82;20995;-75
2021/11/17 10:32:50;;;;;;;26.30;16.60;;;;;;;2.99;60.72;102209.70;1752768;82;21888;-76
2021/11/17 10:35:27;;;;;;;31.87;16.97;;;;;;;3.39;59.95;102206.97;1749123;82;20972;-75
2021/11/17 10:38:09;;;;;;;31.05;16.75;;;;;;;3.74;59.15;102209.37;1752508;82;20964;-75
2021/11/17 10:40:53;;;;;;;26.10;15.93;;;;;;;4.07;58.51;102213.92;1751718;82;20983;-74
2021/11/17 10:43:28;;;;;;;29.00;19.40;;;;;;;4.40;57.53;102203.27;1752457;82;20905;-73
2021/11/17 10:46:11;;;;;;;28.83;17.70;;;;;;;4.69;56.73;102202.58;1751893;82;21147;-73
2021/11/17 10:48:53;;;;;;;24.45;15.75;;;;;;;5.06;56.04;102196.11;1752295;82;20944;-74
2021/11/17 10:51:32;;;;;;;28.70;18.17;;;;;;;5.37;54.88;102200.05;1752168;82;20943;-74
2021/11/17 10:53:57;;;;;;;24.23;17.02;;;;;;;5.55;54.26;102198.09;1751717;82;20995;-75
2021/11/17 10:56:28;;;;;;;31.87;18.00;;;;;;;5.61;53.85;102194.11;1752196;82;21002;-75
2021/11/17 10:58:58;;;;;;;24.23;16.40;;;;;;;5.68;53.99;102192.28;1752230;82;21828;-76
2021/11/17 11:01:38;;;;;;;36.15;19.10;;;;;;;5.74;53.74;102196.95;1752089;82;20920;-73
2021/11/17 11:04:13;;;;;;;29.12;17.40;;;;;;;5.79;53.20;102199.48;1751807;82;20952;-73
2021/11/17 11:06:43;;;;;;;;;;;;;;;5.71;53.17;102189.62;1745284;82;21467;-74
2021/11/17 11:09:26;;;;;;;26.30;16.70;;;;;;;5.63;52.84;102185.84;1751237;82;20086;-73
2021/11/17 11:11:54;;;;;;;24.43;16.15;;;;;;;5.52;53.04;102179.92;1752144;82;21290;-73
2021/11/17 11:14:38;;;;;;;26.40;16.67;;;;;;;5.31;53.04;102178.45;1752219;82;21035;-72
2021/11/17 11:17:32;;;;;;;28.80;17.07;;;;;;;5.09;53.43;102177.44;1752165;82;21023;-74
2021/11/17 11:20:24;;;;;;;30.10;15.80;;;;;;;4.91;53.81;102176.33;1752182;81;20881;-73
2021/11/17 11:23:15;;;;;;;28.47;15.98;;;;;;;4.71;54.31;102181.75;1752529;81;20860;-73
2021/11/17 11:26:05;;;;;;;29.75;16.93;;;;;;;4.58;54.70;102178.44;1752398;82;21187;-74
2021/11/17 11:28:48;;;;;;;30.00;16.80;;;;;;;4.51;54.95;102175.45;1752331;82;20932;-72
2021/11/17 11:31:29;;;;;;;23.87;15.70;;;;;;;4.48;55.10;102178.95;1752865;82;20896;-73
2021/11/17 11:34:01;;;;;;;27.10;17.15;;;;;;;4.46;55.22;102179.84;1752632;82;21461;-73
2021/11/17 11:36:43;;;;;;;29.50;14.83;;;;;;;4.45;55.16;102174.23;1752653;82;20888;-74
2021/11/17 11:39:14;;;;;;;23.87;14.93;;;;;;;4.38;55.01;102175.14;1752591;82;21146;-74
2021/11/17 11:41:46;;;;;;;23.62;14.07;;;;;;;4.24;54.93;102168.78;1752220;82;21605;-74
2021/11/17 11:44:23;;;;;;;27.27;16.65;;;;;;;4.11;55.19;102168.02;1752466;82;21395;-74
2021/11/17 11:47:02;;;;;;;30.43;14.87;;;;;;;4.02;55.60;102170.25;1752105;82;20928;-73
2021/11/17 11:49:46;;;;;;;28.25;16.02;;;;;;;4.03;55.95;102172.43;1752903;82;21096;-73
2021/11/17 11:52:39;;;;;;;23.67;15.18;;;;;;;4.09;55.63;102169.76;1752366;82;21151;-73
2021/11/17 11:55:12;;;;;;;25.20;14.28;;;;;;;4.11;55.44;102168.91;1750787;82;20960;-74
2021/11/17 11:57:51;;;;;;;25.40;14.47;;;;;;;4.15;55.37;102166.68;1752113;82;20928;-73
2021/11/17 12:00:36;;;;;;;22.35;13.80;;;;;;;4.21;55.26;102163.19;1752563;82;20976;-73
2021/11/17 12:03:10;;;;;;;21.70;15.13;;;;;;;4.34;55.00;102158.30;1744878;81;20940;-74
2021/11/17 12:05:44;;;;;;;;;;;;;;;4.43;54.75;102155.20;1782425;80;21125;-74
2021/11/17 12:08:45;;;;;;;27.73;14.78;;;;;;;4.48;54.52;102149.52;1777021;80;20122;-74
2021/11/17 12:11:17;;;;;;;28.50;14.05;;;;;;;4.53;54.56;102143.38;1780846;80;20931;-77
2021/11/17 12:14:05;;;;;;;30.52;15.43;;;;;;;4.58;54.31;102142.06;1743551;82;20972;-74
2021/11/17 12:16:45;;;;;;;26.60;15.00;;;;;;;4.59;54.38;102137.28;1743796;82;20939;-74
2021/11/17 12:19:16;;;;;;;23.38;14.63;;;;;;;4.61;54.28;102133.38;1717181;83;22169;-74
2021/11/17 12:22:00;;;;;;;23.83;14.63;;;;;;;4.57;54.34;102128.64;1777895;79;20884;-73
2021/11/17 12:24:35;;;;;;;23.27;14.13;;;;;;;4.56;54.34;102124.33;1781012;79;20886;-73
2021/11/17 12:27:07;;;;;;;22.65;13.98;;;;;;;4.51;54.49;102120.48;1744359;81;20955;-74
2021/11/17 12:29:49;;;;;;;25.32;14.80;;;;;;;4.49;54.34;102118.76;1717535;83;20940;-73
2021/11/17 12:32:27;;;;;;;25.60;14.73;;;;;;;4.39;54.48;102116.70;1781195;80;21573;-73
2021/11/17 12:35:27;;;;;;;29.18;15.85;;;;;;;4.39;54.69;102122.34;1780914;79;20896;-74
2021/11/17 12:38:07;;;;;;;29.63;14.73;;;;;;;4.38;54.63;102117.59;1781314;79;20879;-72
2021/11/17 12:40:51;;;;;;;31.70;16.60;;;;;;;4.29;54.55;102114.65;1780939;79;21004;-71
2021/11/17 12:43:35;;;;;;;29.33;17.93;;;;;;;4.19;54.67;102110.85;1781260;80;20916;-72
2021/11/17 12:46:30;;;;;;;28.87;15.75;;;;;;;4.08;54.68;102102.71;1754021;80;21154;-72
2021/11/17 12:49:25;;;;;;;;;;;;;;;3.99;54.99;102106.69;1783398;80;20978;-72
2021/11/17 12:52:26;;;;;;;29.18;16.10;;;;;;;3.94;55.23;102108.03;1780914;80;20379;-73
2021/11/17 12:55:01;;;;;;;39.75;15.83;;;;;;;3.90;55.28;102117.16;1720225;81;20987;-74
2021/11/17 12:57:45;;;;;;;28.60;16.42;;;;;;;3.83;55.27;102110.30;1744429;82;20940;-74
2021/11/17 13:00:20;;;;;;;34.85;17.07;;;;;;;3.74;55.42;102113.38;1744412;82;21151;-73
2021/11/17 13:02:56;;;;;;;24.98;16.37;;;;;;;3.67;55.59;102108.27;1743763;82;20955;-75
2021/11/17 13:05:42;;;;;;;33.28;17.45;;;;;;;3.61;55.87;102116.08;1744220;81;21462;-73
2021/11/17 13:08:12;;;;;;;32.70;16.90;;;;;;;3.56;55.94;102117.41;1744457;82;20983;-73
2021/11/17 13:10:49;;;;;;;39.13;19.02;;;;;;;3.47;56.06;102113.14;1744286;82;21444;-73
2021/11/17 13:13:22;;;;;;;34.95;18.67;;;;;;;3.40;56.19;102107.98;1744331;81;21160;-73
2021/11/17 13:15:55;;;;;;;32.15;16.85;;;;;;;3.32;56.39;102109.34;1744233;82;20951;-72
2021/11/17 13:18:43;;;;;;;31.95;18.12;;;;;;;3.26;56.56;102110.23;1744225;82;20972;-73
2021/11/17 13:21:27;;;;;;;39.03;17.50;;;;;;;3.18;56.78;102109.42;1744302;82;20892;-72
2021/11/17 13:24:10;;;;;;;32.75;17.82;;;;;;;3.11;57.09;102114.19;1744311;82;20924;-73
2021/11/17 13:26:44;;;;;;;29.67;17.30;;;;;;;3.06;57.15;102114.66;1741777;82;21174;-72
2021/11/17 13:29:32;;;;;;;32.28;18.45;;;;;;;2.98;57.28;102112.52;1768334;80;28688;-73
2021/11/17 13:32:16;;;;;;;34.60;17.75;;;;;;;2.91;57.43;102112.98;1786749;79;20962;-75
2021/11/17 13:34:49;;;;;;;36.50;18.17;;;;;;;2.84;57.55;102113.88;1786677;80;20927;-72
2021/11/17 13:37:39;;;;;;;32.85;20.20;;;;;;;2.78;57.70;102116.08;1786248;80;20919;-74
2021/11/17 13:40:17;;;;;;;36.53;20.72;;;;;;;2.73;57.87;102113.06;1786631;79;21137;-73
2021/11/17 13:42:48;;;;;;;41.73;19.62;;;;;;;2.65;57.96;102115.69;1785505;80;20998;-74
2021/11/17 13:45:23;;;;;;;34.13;21.40;;;;;;;2.58;58.17;102112.26;1786085;80;21229;-75
2021/11/17 13:47:50;;;;;;;49.25;21.50;;;;;;;2.52;58.34;102112.27;1786231;80;21018;-75
2021/11/17 13:50:18;;;;;;;43.00;21.87;;;;;;;2.44;58.45;102117.44;1757813;80;20888;-74
2021/11/17 13:52:47;;;;;;;45.63;25.23;;;;;;;2.40;58.60;102112.28;1785318;80;20868;-74
2021/11/17 13:55:19;;;;;;;38.38;23.87;;;;;;;2.32;58.73;102111.02;1786438;80;20840;-74
2021/11/17 13:57:46;;;;;;;44.77;23.55;;;;;;;2.27;58.87;102109.73;1786087;80;20986;-73
2021/11/17 14:00:15;;;;;;;39.73;23.73;;;;;;;2.23;58.99;102114.91;1786103;80;20899;-75
2021/11/17 14:02:44;;;;;;;48.68;24.77;;;;;;;2.19;59.20;102120.52;1786200;80;20875;-75
2021/11/17 14:05:11;;;;;;;53.23;26.40;;;;;;;2.14;59.38;102114.48;1785816;80;21158;-74
2021/11/17 14:07:38;;;;;;;50.67;25.70;;;;;;;2.09;59.38;102116.23;1785508;80;20954;-74
2021/11/17 14:10:06;;;;;;;53.25;27.00;;;;;;;2.05;59.43;102115.35;1786718;79;20832;-74
2021/11/17 14:12:33;;;;;;;40.45;24.77;;;;;;;1.99;59.52;102108.88;1785975;79;20848;-74
2021/11/17 14:15:03;;;;;;;48.52;25.37;;;;;;;1.96;59.55;102103.72;1786070;80;20998;-72
2021/11/17 14:17:30;;;;;;;45.63;26.60;;;;;;;1.92;59.63;102106.31;1786264;79;21194;-73
2021/11/17 14:19:58;;;;;;;42.27;24.55;;;;;;;1.89;59.57;102102.41;1786406;79;20962;-73
2021/11/17 14:22:24;;;;;;;49.93;25.72;;;;;;;1.83;59.63;102098.12;1785870;80;20946;-72
2021/11/17 14:24:56;;;;;;;67.82;33.25;;;;;;;1.78;59.64;102095.94;1786049;80;20883;-74
2021/11/17 14:27:20;;;;;;;49.42;30.88;;;;;;;1.73;59.94;102098.97;1785920;79;20879;-74
2021/11/17 14:29:51;;;;;;;77.12;38.28;;;;;;;1.70;60.13;102102.85;1786879;80;21490;-73
2021/11/17 14:32:30;;;;;;;83.07;44.13;;;;;;;1.62;60.42;102092.08;1786488;80;20923;-75